sensor_id;sensor_type;location;lat;lon;timestamp;temperature;humidity
10143;DHT22;5112;54.088;13.446;2023-01-13T00:07:33;9.50;99.90
10143;DHT22;5112;54.088;13.446;2023-01-13T00:17:35;9.60;99.90
10143;DHT22;5112;54.088;13.446;2023-01-13T00:27:38;9.60;99.90
10143;DHT22;5112;54.088;13.446;2023-01-13T00:37:41;9.50;99.90
10143;DHT22;5112;54.088;13.446;2023-01-13T00:47:43;9.50;99.90
10143;DHT22;5112;54.088;13.446;2023-01-13T00:57:46;9.50;99.90
10143;DHT22;5112;54.088;13.446;2023-01-13T01:07:48;9.50;99.90
10143;DHT22;5112;54.088;13.446;2023-01-13T01:17:51;9.40;99.90
10143;DHT22;5112;54.088;13.446;2023-01-13T01:27:52;9.40;99.90
10143;DHT22;5112;54.088;13.446;2023-01-13T01:37:55;9.40;99.90
10143;DHT22;5112;54.088;13.446;2023-01-13T01:47:59;9.40;99.90
10143;DHT22;5112;54.088;13.446;2023-01-13T01:58:06;9.40;99.90
10143;DHT22;5112;54.088;13.446;2023-01-13T02:08:11;9.40;99.90
10143;DHT22;5112;54.088;13.446;2023-01-13T02:18:30;9.40;99.90
10143;DHT22;5112;54.088;13.446;2023-01-13T02:28:55;9.50;99.90
10143;DHT22;5112;54.088;13.446;2023-01-13T02:39:25;9.50;99.90
10143;DHT22;5112;54.088;13.446;2023-01-13T02:49:33;9.50;99.90
10143;DHT22;5112;54.088;13.446;2023-01-13T02:59:39;9.60;99.90
10143;DHT22;5112;54.088;13.446;2023-01-13T03:09:44;9.60;99.90
10143;DHT22;5112;54.088;13.446;2023-01-13T03:19:57;9.60;99.90
10143;DHT22;5112;54.088;13.446;2023-01-13T03:30:03;9.60;99.90
10143;DHT22;5112;54.088;13.446;2023-01-13T03:40:11;9.60;99.90
10143;DHT22;5112;54.088;13.446;2023-01-13T03:50:18;9.70;99.90
10143;DHT22;5112;54.088;13.446;2023-01-13T04:00:26;9.70;99.90
10143;DHT22;5112;54.088;13.446;2023-01-13T04:10:31;9.60;99.90
10143;DHT22;5112;54.088;13.446;2023-01-13T04:20:36;9.40;99.90
10143;DHT22;5112;54.088;13.446;2023-01-13T04:30:40;9.40;99.90
10143;DHT22;5112;54.088;13.446;2023-01-13T04:40:43;9.10;99.90
10143;DHT22;5112;54.088;13.446;2023-01-13T04:50:45;8.90;99.90
10143;DHT22;5112;54.088;13.446;2023-01-13T05:00:48;8.80;99.90
10143;DHT22;5112;54.088;13.446;2023-01-13T05:10:50;8.90;99.90
10143;DHT22;5112;54.088;13.446;2023-01-13T05:20:53;9.00;99.90
10143;DHT22;5112;54.088;13.446;2023-01-13T05:30:56;8.90;99.90
10143;DHT22;5112;54.088;13.446;2023-01-13T05:40:59;8.70;99.90
10143;DHT22;5112;54.088;13.446;2023-01-13T05:51:30;8.90;99.90
10143;DHT22;5112;54.088;13.446;2023-01-13T06:01:33;8.70;99.90
10143;DHT22;5112;54.088;13.446;2023-01-13T06:11:36;8.70;99.90
10143;DHT22;5112;54.088;13.446;2023-01-13T06:21:39;8.60;99.90
10143;DHT22;5112;54.088;13.446;2023-01-13T06:31:41;8.50;99.90
10143;DHT22;5112;54.088;13.446;2023-01-13T06:41:46;8.50;99.90
10143;DHT22;5112;54.088;13.446;2023-01-13T06:52:06;8.30;99.90
10143;DHT22;5112;54.088;13.446;2023-01-13T07:02:09;8.30;99.90
10143;DHT22;5112;54.088;13.446;2023-01-13T07:12:11;8.20;99.90
10143;DHT22;5112;54.088;13.446;2023-01-13T07:22:14;8.10;99.90
10143;DHT22;5112;54.088;13.446;2023-01-13T07:32:15;8.00;99.90
10143;DHT22;5112;54.088;13.446;2023-01-13T07:42:18;7.90;99.90
10143;DHT22;5112;54.088;13.446;2023-01-13T07:52:37;7.70;99.90
10143;DHT22;5112;54.088;13.446;2023-01-13T08:02:41;7.50;99.90
10143;DHT22;5112;54.088;13.446;2023-01-13T08:12:42;7.50;99.90
10143;DHT22;5112;54.088;13.446;2023-01-13T08:23:03;7.50;99.90
10143;DHT22;5112;54.088;13.446;2023-01-13T08:33:06;7.80;99.90
10143;DHT22;5112;54.088;13.446;2023-01-13T08:43:09;8.00;99.90
10143;DHT22;5112;54.088;13.446;2023-01-13T08:53:11;8.30;99.90
10143;DHT22;5112;54.088;13.446;2023-01-13T09:03:14;8.50;99.90
10143;DHT22;5112;54.088;13.446;2023-01-13T09:13:16;8.70;99.90
10143;DHT22;5112;54.088;13.446;2023-01-13T09:23:21;9.00;99.90
10143;DHT22;5112;54.088;13.446;2023-01-13T09:33:22;9.20;99.90
10143;DHT22;5112;54.088;13.446;2023-01-13T09:43:43;9.10;99.90
10143;DHT22;5112;54.088;13.446;2023-01-13T09:53:56;9.20;99.90
10143;DHT22;5112;54.088;13.446;2023-01-13T10:04:03;9.20;99.90
10143;DHT22;5112;54.088;13.446;2023-01-13T10:14:12;9.30;99.90
10143;DHT22;5112;54.088;13.446;2023-01-13T10:24:21;9.60;99.90
10143;DHT22;5112;54.088;13.446;2023-01-13T10:34:27;9.30;99.90
10143;DHT22;5112;54.088;13.446;2023-01-13T10:44:30;9.80;99.90
10143;DHT22;5112;54.088;13.446;2023-01-13T10:54:50;10.00;99.90
10143;DHT22;5112;54.088;13.446;2023-01-13T11:05:02;10.10;99.90
10143;DHT22;5112;54.088;13.446;2023-01-13T11:15:08;10.20;99.90
10143;DHT22;5112;54.088;13.446;2023-01-13T11:25:18;10.50;99.90
10143;DHT22;5112;54.088;13.446;2023-01-13T11:35:23;10.40;99.90
10143;DHT22;5112;54.088;13.446;2023-01-13T11:45:31;10.60;99.90
10143;DHT22;5112;54.088;13.446;2023-01-13T11:55:44;10.70;99.90
10143;DHT22;5112;54.088;13.446;2023-01-13T12:06:00;10.60;99.90
10143;DHT22;5112;54.088;13.446;2023-01-13T12:16:13;10.70;99.90
10143;DHT22;5112;54.088;13.446;2023-01-13T12:26:17;10.50;99.90
10143;DHT22;5112;54.088;13.446;2023-01-13T12:36:24;10.20;99.90
10143;DHT22;5112;54.088;13.446;2023-01-13T12:46:45;10.60;99.90
10143;DHT22;5112;54.088;13.446;2023-01-13T12:56:50;10.60;99.90
10143;DHT22;5112;54.088;13.446;2023-01-13T13:07:05;10.20;99.90
10143;DHT22;5112;54.088;13.446;2023-01-13T13:27:47;9.90;99.90
10143;DHT22;5112;54.088;13.446;2023-01-13T13:37:59;9.60;99.90
10143;DHT22;5112;54.088;13.446;2023-01-13T13:48:25;9.60;99.90
10143;DHT22;5112;54.088;13.446;2023-01-13T13:58:30;9.60;99.90
10143;DHT22;5112;54.088;13.446;2023-01-13T14:08:38;9.50;99.90
10143;DHT22;5112;54.088;13.446;2023-01-13T14:18:45;9.50;99.90
10143;DHT22;5112;54.088;13.446;2023-01-13T14:28:49;9.40;99.90
10143;DHT22;5112;54.088;13.446;2023-01-13T14:49:35;9.30;99.90
10143;DHT22;5112;54.088;13.446;2023-01-13T14:59:42;9.20;99.90
10143;DHT22;5112;54.088;13.446;2023-01-13T15:09:45;9.10;99.90
10143;DHT22;5112;54.088;13.446;2023-01-13T15:19:47;9.00;99.90
10143;DHT22;5112;54.088;13.446;2023-01-13T15:29:50;9.30;99.90
10143;DHT22;5112;54.088;13.446;2023-01-13T15:39:52;8.70;99.90
10143;DHT22;5112;54.088;13.446;2023-01-13T15:49:55;8.40;99.90
10143;DHT22;5112;54.088;13.446;2023-01-13T15:59:59;8.50;99.90
10143;DHT22;5112;54.088;13.446;2023-01-13T16:10:03;8.40;99.90
10143;DHT22;5112;54.088;13.446;2023-01-13T16:20:11;8.40;99.90
10143;DHT22;5112;54.088;13.446;2023-01-13T16:30:21;8.40;99.90
10143;DHT22;5112;54.088;13.446;2023-01-13T16:40:26;8.40;99.90
10143;DHT22;5112;54.088;13.446;2023-01-13T16:50:33;8.60;99.90
10143;DHT22;5112;54.088;13.446;2023-01-13T17:00:36;8.40;99.90
10143;DHT22;5112;54.088;13.446;2023-01-13T17:10:39;8.30;99.90
10143;DHT22;5112;54.088;13.446;2023-01-13T17:20:40;8.30;99.90
10143;DHT22;5112;54.088;13.446;2023-01-13T17:30:43;8.40;99.90
10143;DHT22;5112;54.088;13.446;2023-01-13T17:40:45;8.40;99.90
10143;DHT22;5112;54.088;13.446;2023-01-13T17:50:48;8.40;99.90
10143;DHT22;5112;54.088;13.446;2023-01-13T18:00:51;8.50;99.90
10143;DHT22;5112;54.088;13.446;2023-01-13T18:10:54;8.50;99.90
10143;DHT22;5112;54.088;13.446;2023-01-13T18:20:57;8.60;99.90
10143;DHT22;5112;54.088;13.446;2023-01-13T18:31:17;8.50;99.90
10143;DHT22;5112;54.088;13.446;2023-01-13T18:41:19;8.40;99.90
10143;DHT22;5112;54.088;13.446;2023-01-13T18:51:39;8.50;99.90
10143;DHT22;5112;54.088;13.446;2023-01-13T19:01:41;8.50;99.90
10143;DHT22;5112;54.088;13.446;2023-01-13T19:11:44;8.50;99.90
10143;DHT22;5112;54.088;13.446;2023-01-13T19:21:46;8.20;99.90
10143;DHT22;5112;54.088;13.446;2023-01-13T19:31:49;8.10;99.90
10143;DHT22;5112;54.088;13.446;2023-01-13T19:41:51;8.20;99.90
10143;DHT22;5112;54.088;13.446;2023-01-13T19:52:20;8.20;99.90
10143;DHT22;5112;54.088;13.446;2023-01-13T20:02:22;8.30;99.90
10143;DHT22;5112;54.088;13.446;2023-01-13T20:12:29;8.20;99.90
10143;DHT22;5112;54.088;13.446;2023-01-13T20:22:31;8.10;99.90
10143;DHT22;5112;54.088;13.446;2023-01-13T20:32:35;8.10;99.90
10143;DHT22;5112;54.088;13.446;2023-01-13T20:42:36;8.20;99.90
10143;DHT22;5112;54.088;13.446;2023-01-13T20:52:45;8.20;99.90
10143;DHT22;5112;54.088;13.446;2023-01-13T21:02:47;8.30;99.90
10143;DHT22;5112;54.088;13.446;2023-01-13T21:12:50;8.30;99.90
10143;DHT22;5112;54.088;13.446;2023-01-13T21:23:10;8.30;99.90
10143;DHT22;5112;54.088;13.446;2023-01-13T21:33:13;8.30;99.90
10143;DHT22;5112;54.088;13.446;2023-01-13T21:43:14;8.30;99.90
10143;DHT22;5112;54.088;13.446;2023-01-13T21:53:35;8.20;99.90
10143;DHT22;5112;54.088;13.446;2023-01-13T22:03:37;8.20;99.90
10143;DHT22;5112;54.088;13.446;2023-01-13T22:13:54;8.20;99.90
10143;DHT22;5112;54.088;13.446;2023-01-13T22:24:08;8.10;99.90
10143;DHT22;5112;54.088;13.446;2023-01-13T22:34:12;8.10;99.90
10143;DHT22;5112;54.088;13.446;2023-01-13T22:44:13;8.10;99.90
10143;DHT22;5112;54.088;13.446;2023-01-13T22:54:17;8.10;99.90
10143;DHT22;5112;54.088;13.446;2023-01-13T23:04:19;8.10;99.90
10143;DHT22;5112;54.088;13.446;2023-01-13T23:14:22;8.10;99.90
10143;DHT22;5112;54.088;13.446;2023-01-13T23:24:24;8.00;99.90
10143;DHT22;5112;54.088;13.446;2023-01-13T23:34:28;8.00;99.90
10143;DHT22;5112;54.088;13.446;2023-01-13T23:44:30;8.00;99.90
10143;DHT22;5112;54.088;13.446;2023-01-13T23:54:33;8.00;99.90
